Skip Navigation LinksHome page > Weather > Current weather Skip Navigation Links

Current Weather

Chicago O'Hare Intl, Chicago

For information only: do not use for flight planning or navigation.
Latest weather
Observation time Friday, October 24, 2014 3:51 AM CDT
Local time Friday, October 24, 2014 4:29 AM CDT
Flight conditions Marginal Visual Meteorological Conditions
Winds
Wind direction West-Southwest (240°)
Wind speed 7 mph
Visibility 10 mi.
Sky condition
Ceiling 2,300 ft. overcast
Cloud layer overcast 2,300 ft.
Temperature 53°F
Dewpoint 44°F
Altimeter 30.04 in.Hg
Pressure change last 3 hours0.00 in.Hg
Pressure falling more slowly
Derived measurements
Relative humidity 71%
Density altitude 281 ft.
Sea-level pressure 30.04 in.Hg
Remarks
System requires maintenance.
Automated weather observing station with precipitation discriminator.
METAR KORD 240851Z 24006KT 10SM OVC023 12/07 A3004 RMK AO2 SLP173 T01170067 56001 $

Settings

Location code

InnerDrive.Weather 4.0.5399.0 Release CLR 4.0.30319.34014
Copyright ©2014 Inner Drive Technology. All rights reserved. Portions Copyright ©1986-2014 David Braverman.

Find weather

Site navigation


Skip Navigation Links

Place info

Page info

PayPal - The safer, easier way to pay online!

Return home.

Copyright ©2014 Inner Drive Technology. Purveyors of fine, hand-crafted computer software. Page printed 2014-10-24T09:29:49 UTC.